sensor_id;sensor_type;location;lat;lon;timestamp;pressure;altitude;pressure_sealevel;temperature;humidity
33781;BME280;20097;50.832;19.100;2023-01-29T00:02:42;99214.38;;;-1.87;100.00
33781;BME280;20097;50.832;19.100;2023-01-29T00:07:46;99213.06;;;-1.96;100.00
33781;BME280;20097;50.832;19.100;2023-01-29T00:12:51;99228.19;;;-1.91;100.00
33781;BME280;20097;50.832;19.100;2023-01-29T00:17:57;99223.16;;;-1.93;100.00
33781;BME280;20097;50.832;19.100;2023-01-29T00:23:02;99215.63;;;-1.96;100.00
33781;BME280;20097;50.832;19.100;2023-01-29T00:28:06;99228.94;;;-1.89;100.00
33781;BME280;20097;50.832;19.100;2023-01-29T00:33:11;99233.00;;;-2.02;100.00
33781;BME280;20097;50.832;19.100;2023-01-29T00:38:16;99232.63;;;-1.95;100.00
33781;BME280;20097;50.832;19.100;2023-01-29T00:43:21;99229.03;;;-1.91;100.00
33781;BME280;20097;50.832;19.100;2023-01-29T00:48:44;99220.22;;;-2.02;100.00
33781;BME280;20097;50.832;19.100;2023-01-29T00:53:49;99210.84;;;-2.20;100.00
33781;BME280;20097;50.832;19.100;2023-01-29T00:58:54;99225.09;;;-2.15;100.00
33781;BME280;20097;50.832;19.100;2023-01-29T01:04:00;99216.78;;;-2.20;100.00
33781;BME280;20097;50.832;19.100;2023-01-29T01:09:04;99212.16;;;-2.12;100.00
33781;BME280;20097;50.832;19.100;2023-01-29T01:14:27;99200.75;;;-2.23;100.00
33781;BME280;20097;50.832;19.100;2023-01-29T01:19:34;99189.00;;;-2.27;100.00
33781;BME280;20097;50.832;19.100;2023-01-29T01:24:38;99184.28;;;-2.18;100.00
33781;BME280;20097;50.832;19.100;2023-01-29T01:29:43;99189.56;;;-2.21;100.00
33781;BME280;20097;50.832;19.100;2023-01-29T01:34:51;99185.34;;;-2.22;100.00
33781;BME280;20097;50.832;19.100;2023-01-29T01:39:55;99190.00;;;-2.13;100.00
33781;BME280;20097;50.832;19.100;2023-01-29T01:45:04;99199.72;;;-2.19;100.00
33781;BME280;20097;50.832;19.100;2023-01-29T01:50:14;99196.16;;;-2.34;100.00
33781;BME280;20097;50.832;19.100;2023-01-29T01:55:23;99178.25;;;-2.34;100.00
33781;BME280;20097;50.832;19.100;2023-01-29T02:00:29;99176.13;;;-2.43;100.00
33781;BME280;20097;50.832;19.100;2023-01-29T02:05:35;99172.75;;;-2.43;100.00
33781;BME280;20097;50.832;19.100;2023-01-29T02:10:58;99178.69;;;-2.43;100.00
33781;BME280;20097;50.832;19.100;2023-01-29T02:16:03;99183.50;;;-2.37;100.00
33781;BME280;20097;50.832;19.100;2023-01-29T02:21:42;99178.53;;;-2.40;100.00
33781;BME280;20097;50.832;19.100;2023-01-29T02:27:04;99173.06;;;-2.32;100.00
33781;BME280;20097;50.832;19.100;2023-01-29T02:32:24;99181.16;;;-2.23;100.00
33781;BME280;20097;50.832;19.100;2023-01-29T02:37:38;99182.03;;;-2.24;100.00
33781;BME280;20097;50.832;19.100;2023-01-29T02:42:51;99187.53;;;-2.31;100.00
33781;BME280;20097;50.832;19.100;2023-01-29T02:48:00;99183.50;;;-2.37;100.00
33781;BME280;20097;50.832;19.100;2023-01-29T02:53:11;99191.25;;;-2.38;100.00
33781;BME280;20097;50.832;19.100;2023-01-29T02:58:25;99195.25;;;-2.33;100.00
33781;BME280;20097;50.832;19.100;2023-01-29T03:03:38;99185.03;;;-2.33;100.00
33781;BME280;20097;50.832;19.100;2023-01-29T03:08:51;99195.81;;;-2.26;100.00
33781;BME280;20097;50.832;19.100;2023-01-29T03:14:01;99183.47;;;-2.18;100.00
33781;BME280;20097;50.832;19.100;2023-01-29T03:19:14;99179.06;;;-2.15;100.00
33781;BME280;20097;50.832;19.100;2023-01-29T03:24:25;99167.16;;;-2.16;100.00
33781;BME280;20097;50.832;19.100;2023-01-29T03:29:53;99160.09;;;-1.94;100.00
33781;BME280;20097;50.832;19.100;2023-01-29T03:35:35;99160.72;;;-1.89;100.00
33781;BME280;20097;50.832;19.100;2023-01-29T03:40:48;99150.31;;;-2.03;100.00
33781;BME280;20097;50.832;19.100;2023-01-29T03:46:03;99163.56;;;-1.95;100.00
33781;BME280;20097;50.832;19.100;2023-01-29T03:51:24;99140.38;;;-1.92;100.00
33781;BME280;20097;50.832;19.100;2023-01-29T03:56:42;99130.28;;;-1.95;100.00
33781;BME280;20097;50.832;19.100;2023-01-29T04:01:52;99126.09;;;-1.96;100.00
33781;BME280;20097;50.832;19.100;2023-01-29T04:07:07;99126.75;;;-2.09;100.00
33781;BME280;20097;50.832;19.100;2023-01-29T04:12:17;99111.44;;;-1.92;100.00
33781;BME280;20097;50.832;19.100;2023-01-29T04:17:27;99124.41;;;-1.97;100.00
33781;BME280;20097;50.832;19.100;2023-01-29T04:22:49;99111.09;;;-2.03;100.00
33781;BME280;20097;50.832;19.100;2023-01-29T04:28:03;99109.84;;;-2.12;100.00
33781;BME280;20097;50.832;19.100;2023-01-29T04:33:20;99102.25;;;-2.13;100.00
33781;BME280;20097;50.832;19.100;2023-01-29T04:38:40;99108.50;;;-2.19;100.00
33781;BME280;20097;50.832;19.100;2023-01-29T04:43:58;99112.69;;;-2.18;100.00
33781;BME280;20097;50.832;19.100;2023-01-29T04:49:14;99108.72;;;-2.23;100.00
33781;BME280;20097;50.832;19.100;2023-01-29T04:54:33;99109.41;;;-2.20;100.00
33781;BME280;20097;50.832;19.100;2023-01-29T04:59:47;99099.97;;;-2.19;100.00
33781;BME280;20097;50.832;19.100;2023-01-29T05:04:54;99095.25;;;-2.27;100.00
33781;BME280;20097;50.832;19.100;2023-01-29T05:10:00;99096.81;;;-2.24;100.00
33781;BME280;20097;50.832;19.100;2023-01-29T05:15:11;99083.91;;;-2.21;100.00
33781;BME280;20097;50.832;19.100;2023-01-29T05:20:17;99092.22;;;-2.18;100.00
33781;BME280;20097;50.832;19.100;2023-01-29T05:25:24;99088.03;;;-2.19;100.00
33781;BME280;20097;50.832;19.100;2023-01-29T05:30:29;99094.97;;;-2.04;100.00
33781;BME280;20097;50.832;19.100;2023-01-29T05:35:34;99090.13;;;-2.10;100.00
33781;BME280;20097;50.832;19.100;2023-01-29T05:40:40;99090.50;;;-2.17;100.00
33781;BME280;20097;50.832;19.100;2023-01-29T05:45:52;99102.34;;;-2.15;100.00
33781;BME280;20097;50.832;19.100;2023-01-29T05:50:59;99092.47;;;-2.05;100.00
33781;BME280;20097;50.832;19.100;2023-01-29T05:56:05;99099.78;;;-2.15;100.00
33781;BME280;20097;50.832;19.100;2023-01-29T06:01:12;99101.28;;;-2.11;100.00
33781;BME280;20097;50.832;19.100;2023-01-29T06:06:17;99112.94;;;-2.05;100.00
33781;BME280;20097;50.832;19.100;2023-01-29T06:11:23;99115.84;;;-2.13;100.00
33781;BME280;20097;50.832;19.100;2023-01-29T06:16:28;99112.34;;;-2.10;100.00
33781;BME280;20097;50.832;19.100;2023-01-29T06:21:32;99106.06;;;-2.05;100.00
33781;BME280;20097;50.832;19.100;2023-01-29T06:26:38;99088.84;;;-2.01;100.00
33781;BME280;20097;50.832;19.100;2023-01-29T06:31:43;99116.75;;;-2.14;100.00
33781;BME280;20097;50.832;19.100;2023-01-29T06:36:47;99105.84;;;-2.17;100.00
33781;BME280;20097;50.832;19.100;2023-01-29T06:41:53;99107.53;;;-2.16;100.00
33781;BME280;20097;50.832;19.100;2023-01-29T06:46:57;99108.56;;;-2.20;100.00
33781;BME280;20097;50.832;19.100;2023-01-29T06:52:02;99109.91;;;-2.30;100.00
33781;BME280;20097;50.832;19.100;2023-01-29T06:57:08;99110.81;;;-2.31;100.00
33781;BME280;20097;50.832;19.100;2023-01-29T07:02:12;99104.56;;;-2.26;100.00
33781;BME280;20097;50.832;19.100;2023-01-29T07:07:18;99110.09;;;-2.16;100.00
33781;BME280;20097;50.832;19.100;2023-01-29T07:12:24;99117.97;;;-2.21;100.00
33781;BME280;20097;50.832;19.100;2023-01-29T07:17:28;99131.06;;;-2.27;100.00
33781;BME280;20097;50.832;19.100;2023-01-29T07:22:32;99130.13;;;-2.26;100.00
33781;BME280;20097;50.832;19.100;2023-01-29T07:27:38;99123.31;;;-2.25;100.00
33781;BME280;20097;50.832;19.100;2023-01-29T07:32:43;99145.94;;;-2.35;100.00
33781;BME280;20097;50.832;19.100;2023-01-29T07:37:48;99146.31;;;-2.25;100.00
33781;BME280;20097;50.832;19.100;2023-01-29T07:42:58;99147.84;;;-2.21;100.00
33781;BME280;20097;50.832;19.100;2023-01-29T07:48:04;99138.44;;;-2.04;100.00
33781;BME280;20097;50.832;19.100;2023-01-29T07:53:12;99136.03;;;-2.07;100.00
33781;BME280;20097;50.832;19.100;2023-01-29T07:58:18;99126.34;;;-2.00;100.00
33781;BME280;20097;50.832;19.100;2023-01-29T08:03:23;99152.44;;;-1.94;100.00
33781;BME280;20097;50.832;19.100;2023-01-29T08:08:27;99174.38;;;-1.90;100.00
33781;BME280;20097;50.832;19.100;2023-01-29T08:13:33;99170.63;;;-1.83;100.00
33781;BME280;20097;50.832;19.100;2023-01-29T08:18:38;99169.28;;;-1.73;100.00
33781;BME280;20097;50.832;19.100;2023-01-29T08:23:46;99168.22;;;-1.69;100.00
33781;BME280;20097;50.832;19.100;2023-01-29T08:28:52;99162.94;;;-1.66;100.00
33781;BME280;20097;50.832;19.100;2023-01-29T08:33:56;99152.69;;;-1.49;100.00
33781;BME280;20097;50.832;19.100;2023-01-29T08:39:02;99139.25;;;-1.37;100.00
33781;BME280;20097;50.832;19.100;2023-01-29T08:44:08;99134.28;;;-1.40;100.00
33781;BME280;20097;50.832;19.100;2023-01-29T08:49:13;99131.44;;;-1.51;100.00
33781;BME280;20097;50.832;19.100;2023-01-29T08:54:17;99135.78;;;-1.35;100.00
33781;BME280;20097;50.832;19.100;2023-01-29T08:59:23;99118.81;;;-1.21;100.00
33781;BME280;20097;50.832;19.100;2023-01-29T09:04:27;99130.00;;;-1.39;100.00
33781;BME280;20097;50.832;19.100;2023-01-29T09:09:32;99123.59;;;-1.30;100.00
33781;BME280;20097;50.832;19.100;2023-01-29T09:14:38;99131.34;;;-1.32;100.00
33781;BME280;20097;50.832;19.100;2023-01-29T09:19:43;99111.81;;;-1.34;100.00
33781;BME280;20097;50.832;19.100;2023-01-29T09:24:47;99116.00;;;-0.85;98.81
33781;BME280;20097;50.832;19.100;2023-01-29T09:29:52;99120.53;;;-0.75;97.89
33781;BME280;20097;50.832;19.100;2023-01-29T09:34:57;99110.72;;;-0.82;96.95
33781;BME280;20097;50.832;19.100;2023-01-29T09:40:02;99107.94;;;-0.33;95.47
33781;BME280;20097;50.832;19.100;2023-01-29T09:45:14;99093.13;;;-0.43;94.12
33781;BME280;20097;50.832;19.100;2023-01-29T09:50:25;99094.50;;;-0.22;94.72
33781;BME280;20097;50.832;19.100;2023-01-29T09:55:33;99071.84;;;-0.30;93.50
33781;BME280;20097;50.832;19.100;2023-01-29T10:00:47;99067.38;;;-0.26;91.97
33781;BME280;20097;50.832;19.100;2023-01-29T10:06:32;99051.16;;;-0.13;90.57
33781;BME280;20097;50.832;19.100;2023-01-29T10:11:48;99050.56;;;0.12;92.85
33781;BME280;20097;50.832;19.100;2023-01-29T10:17:16;99038.31;;;-0.27;91.36
33781;BME280;20097;50.832;19.100;2023-01-29T10:22:57;99031.19;;;-0.22;92.11
33781;BME280;20097;50.832;19.100;2023-01-29T10:28:16;99027.59;;;-0.33;92.04
33781;BME280;20097;50.832;19.100;2023-01-29T10:33:29;99006.59;;;-0.54;92.96
33781;BME280;20097;50.832;19.100;2023-01-29T10:38:57;98989.88;;;-0.31;92.16
33781;BME280;20097;50.832;19.100;2023-01-29T10:44:14;98970.09;;;-0.01;91.78
33781;BME280;20097;50.832;19.100;2023-01-29T10:49:42;98962.00;;;0.05;90.92
33781;BME280;20097;50.832;19.100;2023-01-29T10:55:03;98963.47;;;0.23;90.49
33781;BME280;20097;50.832;19.100;2023-01-29T11:00:18;98962.56;;;0.10;89.64
33781;BME280;20097;50.832;19.100;2023-01-29T11:05:32;98969.00;;;0.17;90.43
33781;BME280;20097;50.832;19.100;2023-01-29T11:10:43;98959.47;;;0.19;88.94
33781;BME280;20097;50.832;19.100;2023-01-29T11:15:53;98967.97;;;0.74;88.49
33781;BME280;20097;50.832;19.100;2023-01-29T11:21:03;98965.88;;;0.67;84.78
33781;BME280;20097;50.832;19.100;2023-01-29T11:26:12;98964.16;;;0.94;85.56
33781;BME280;20097;50.832;19.100;2023-01-29T11:31:21;98961.47;;;0.95;84.11
33781;BME280;20097;50.832;19.100;2023-01-29T11:36:33;98942.88;;;1.04;83.33
33781;BME280;20097;50.832;19.100;2023-01-29T11:41:45;98938.06;;;1.00;84.52
33781;BME280;20097;50.832;19.100;2023-01-29T11:46:50;98932.47;;;0.93;84.26
33781;BME280;20097;50.832;19.100;2023-01-29T11:51:58;98919.22;;;0.99;84.93
33781;BME280;20097;50.832;19.100;2023-01-29T11:57:23;98913.84;;;1.16;84.54
33781;BME280;20097;50.832;19.100;2023-01-29T12:02:34;98914.50;;;0.93;85.82
33781;BME280;20097;50.832;19.100;2023-01-29T12:07:41;98918.22;;;0.75;85.73
33781;BME280;20097;50.832;19.100;2023-01-29T12:12:47;98905.06;;;0.67;87.36
33781;BME280;20097;50.832;19.100;2023-01-29T12:17:57;98895.28;;;0.60;87.19
33781;BME280;20097;50.832;19.100;2023-01-29T12:23:23;98895.44;;;0.30;87.20
33781;BME280;20097;50.832;19.100;2023-01-29T12:28:41;98880.78;;;0.32;89.16
33781;BME280;20097;50.832;19.100;2023-01-29T12:33:54;98879.28;;;0.42;89.12
33781;BME280;20097;50.832;19.100;2023-01-29T12:39:03;98875.19;;;0.52;89.88
33781;BME280;20097;50.832;19.100;2023-01-29T12:44:14;98863.56;;;0.73;87.66
33781;BME280;20097;50.832;19.100;2023-01-29T12:49:24;98862.50;;;0.63;88.18
33781;BME280;20097;50.832;19.100;2023-01-29T12:54:38;98854.72;;;0.65;88.25
33781;BME280;20097;50.832;19.100;2023-01-29T12:59:48;98852.25;;;0.63;87.06
33781;BME280;20097;50.832;19.100;2023-01-29T13:04:58;98838.88;;;0.58;87.54
33781;BME280;20097;50.832;19.100;2023-01-29T13:10:13;98827.72;;;0.45;88.14
33781;BME280;20097;50.832;19.100;2023-01-29T13:15:25;98818.91;;;0.49;88.29
33781;BME280;20097;50.832;19.100;2023-01-29T13:20:33;98819.31;;;0.56;90.49
33781;BME280;20097;50.832;19.100;2023-01-29T13:25:39;98812.88;;;0.63;89.46
33781;BME280;20097;50.832;19.100;2023-01-29T13:30:44;98795.31;;;0.69;90.84
33781;BME280;20097;50.832;19.100;2023-01-29T13:35:57;98796.25;;;0.68;91.38
33781;BME280;20097;50.832;19.100;2023-01-29T13:41:05;98803.50;;;0.49;91.58
33781;BME280;20097;50.832;19.100;2023-01-29T13:46:14;98804.84;;;0.28;92.13
33781;BME280;20097;50.832;19.100;2023-01-29T13:51:22;98810.47;;;0.47;94.30
33781;BME280;20097;50.832;19.100;2023-01-29T13:56:46;98805.06;;;0.25;93.20
33781;BME280;20097;50.832;19.100;2023-01-29T14:02:20;98802.75;;;0.08;95.01
33781;BME280;20097;50.832;19.100;2023-01-29T14:07:48;98797.84;;;0.18;95.02
33781;BME280;20097;50.832;19.100;2023-01-29T14:13:27;98798.63;;;0.06;96.24
33781;BME280;20097;50.832;19.100;2023-01-29T14:18:45;98791.66;;;0.08;96.52
33781;BME280;20097;50.832;19.100;2023-01-29T14:23:52;98778.13;;;0.18;96.21
33781;BME280;20097;50.832;19.100;2023-01-29T14:29:16;98792.72;;;0.18;98.63
33781;BME280;20097;50.832;19.100;2023-01-29T14:34:43;98787.41;;;0.07;99.16
33781;BME280;20097;50.832;19.100;2023-01-29T14:39:51;98785.38;;;0.12;99.92
33781;BME280;20097;50.832;19.100;2023-01-29T14:45:19;98789.56;;;0.00;100.00
33781;BME280;20097;50.832;19.100;2023-01-29T14:50:50;98797.09;;;-0.11;100.00
33781;BME280;20097;50.832;19.100;2023-01-29T14:56:00;98781.69;;;-0.11;100.00
33781;BME280;20097;50.832;19.100;2023-01-29T15:01:18;98776.75;;;-0.14;100.00
33781;BME280;20097;50.832;19.100;2023-01-29T15:06:32;98773.38;;;-0.15;100.00
33781;BME280;20097;50.832;19.100;2023-01-29T15:11:48;98778.88;;;-0.21;100.00
33781;BME280;20097;50.832;19.100;2023-01-29T15:17:11;98776.81;;;-0.28;100.00
33781;BME280;20097;50.832;19.100;2023-01-29T15:22:20;98766.16;;;-0.22;100.00
33781;BME280;20097;50.832;19.100;2023-01-29T15:27:27;98750.38;;;-0.43;100.00
33781;BME280;20097;50.832;19.100;2023-01-29T15:32:36;98729.66;;;-0.40;100.00
33781;BME280;20097;50.832;19.100;2023-01-29T15:37:42;98747.91;;;-0.44;100.00
33781;BME280;20097;50.832;19.100;2023-01-29T15:42:47;98739.47;;;-0.46;100.00
33781;BME280;20097;50.832;19.100;2023-01-29T15:47:55;98737.75;;;-0.46;100.00
33781;BME280;20097;50.832;19.100;2023-01-29T15:53:06;98734.91;;;-0.55;100.00
33781;BME280;20097;50.832;19.100;2023-01-29T15:58:17;98733.84;;;-0.65;100.00
33781;BME280;20097;50.832;19.100;2023-01-29T16:03:25;98738.13;;;-0.66;100.00
33781;BME280;20097;50.832;19.100;2023-01-29T16:08:30;98734.44;;;-0.62;100.00
33781;BME280;20097;50.832;19.100;2023-01-29T16:13:39;98732.75;;;-0.75;100.00
33781;BME280;20097;50.832;19.100;2023-01-29T16:18:47;98724.56;;;-0.68;100.00
33781;BME280;20097;50.832;19.100;2023-01-29T16:24:07;98716.50;;;-0.62;100.00
33781;BME280;20097;50.832;19.100;2023-01-29T16:29:17;98715.16;;;-0.67;100.00
33781;BME280;20097;50.832;19.100;2023-01-29T16:34:28;98719.75;;;-0.72;100.00
33781;BME280;20097;50.832;19.100;2023-01-29T16:39:37;98720.22;;;-0.80;100.00
33781;BME280;20097;50.832;19.100;2023-01-29T16:44:51;98729.69;;;-0.68;100.00
33781;BME280;20097;50.832;19.100;2023-01-29T16:50:00;98721.13;;;-0.81;100.00
33781;BME280;20097;50.832;19.100;2023-01-29T16:55:20;98735.59;;;-0.80;100.00
33781;BME280;20097;50.832;19.100;2023-01-29T17:00:28;98731.91;;;-0.76;100.00
33781;BME280;20097;50.832;19.100;2023-01-29T17:05:36;98723.78;;;-0.82;100.00
33781;BME280;20097;50.832;19.100;2023-01-29T17:10:46;98730.72;;;-0.84;100.00
33781;BME280;20097;50.832;19.100;2023-01-29T17:15:51;98712.78;;;-0.84;100.00
33781;BME280;20097;50.832;19.100;2023-01-29T17:20:57;98709.97;;;-0.80;100.00
33781;BME280;20097;50.832;19.100;2023-01-29T17:26:02;98701.63;;;-0.97;100.00
33781;BME280;20097;50.832;19.100;2023-01-29T17:31:10;98703.66;;;-0.88;100.00
33781;BME280;20097;50.832;19.100;2023-01-29T17:36:17;98708.69;;;-0.87;100.00
33781;BME280;20097;50.832;19.100;2023-01-29T17:41:26;98708.03;;;-0.90;100.00
33781;BME280;20097;50.832;19.100;2023-01-29T17:46:31;98694.50;;;-0.78;100.00
33781;BME280;20097;50.832;19.100;2023-01-29T17:51:37;98688.25;;;-0.74;100.00
33781;BME280;20097;50.832;19.100;2023-01-29T17:56:42;98677.34;;;-0.78;100.00
33781;BME280;20097;50.832;19.100;2023-01-29T18:01:46;98675.28;;;-0.85;100.00
33781;BME280;20097;50.832;19.100;2023-01-29T18:06:53;98670.88;;;-0.83;100.00
33781;BME280;20097;50.832;19.100;2023-01-29T18:11:59;98678.09;;;-0.76;100.00
33781;BME280;20097;50.832;19.100;2023-01-29T18:17:03;98676.56;;;-0.78;100.00
33781;BME280;20097;50.832;19.100;2023-01-29T18:22:09;98677.09;;;-0.87;100.00
33781;BME280;20097;50.832;19.100;2023-01-29T18:27:15;98662.66;;;-1.02;100.00
33781;BME280;20097;50.832;19.100;2023-01-29T18:32:20;98653.88;;;-0.98;100.00
33781;BME280;20097;50.832;19.100;2023-01-29T18:37:26;98642.81;;;-0.99;100.00
33781;BME280;20097;50.832;19.100;2023-01-29T18:42:31;98629.53;;;-0.91;100.00
33781;BME280;20097;50.832;19.100;2023-01-29T18:47:38;98633.94;;;-0.93;100.00
33781;BME280;20097;50.832;19.100;2023-01-29T18:52:44;98631.56;;;-0.96;100.00
33781;BME280;20097;50.832;19.100;2023-01-29T18:57:51;98623.16;;;-0.98;100.00
33781;BME280;20097;50.832;19.100;2023-01-29T19:03:17;98612.06;;;-0.99;100.00
33781;BME280;20097;50.832;19.100;2023-01-29T19:08:22;98616.28;;;-1.12;100.00
33781;BME280;20097;50.832;19.100;2023-01-29T19:13:27;98616.38;;;-1.13;100.00
33781;BME280;20097;50.832;19.100;2023-01-29T19:18:32;98612.09;;;-1.13;100.00
33781;BME280;20097;50.832;19.100;2023-01-29T19:23:37;98610.63;;;-1.17;100.00
33781;BME280;20097;50.832;19.100;2023-01-29T19:28:42;98605.41;;;-1.15;100.00
33781;BME280;20097;50.832;19.100;2023-01-29T19:33:47;98608.19;;;-1.32;100.00
33781;BME280;20097;50.832;19.100;2023-01-29T19:38:53;98609.28;;;-1.22;100.00
33781;BME280;20097;50.832;19.100;2023-01-29T19:43:57;98607.00;;;-1.27;100.00
33781;BME280;20097;50.832;19.100;2023-01-29T19:49:02;98611.09;;;-1.24;100.00
33781;BME280;20097;50.832;19.100;2023-01-29T19:54:10;98615.59;;;-1.28;100.00
33781;BME280;20097;50.832;19.100;2023-01-29T19:59:14;98607.81;;;-1.26;100.00
33781;BME280;20097;50.832;19.100;2023-01-29T20:04:19;98607.25;;;-1.31;100.00
33781;BME280;20097;50.832;19.100;2023-01-29T20:09:25;98607.00;;;-1.27;100.00
33781;BME280;20097;50.832;19.100;2023-01-29T20:14:31;98607.25;;;-1.31;100.00
33781;BME280;20097;50.832;19.100;2023-01-29T20:19:36;98602.88;;;-1.29;100.00
33781;BME280;20097;50.832;19.100;2023-01-29T20:24:42;98604.34;;;-1.25;100.00
33781;BME280;20097;50.832;19.100;2023-01-29T20:29:46;98593.81;;;-1.21;100.00
33781;BME280;20097;50.832;19.100;2023-01-29T20:34:51;98584.03;;;-1.14;100.00
33781;BME280;20097;50.832;19.100;2023-01-29T20:39:57;98576.53;;;-1.17;100.00
33781;BME280;20097;50.832;19.100;2023-01-29T20:45:01;98555.31;;;-1.19;100.00
33781;BME280;20097;50.832;19.100;2023-01-29T20:50:07;98557.88;;;-1.19;100.00
33781;BME280;20097;50.832;19.100;2023-01-29T20:55:13;98539.47;;;-1.12;100.00
33781;BME280;20097;50.832;19.100;2023-01-29T21:00:19;98534.97;;;-1.08;100.00
33781;BME280;20097;50.832;19.100;2023-01-29T21:05:23;98529.84;;;-1.08;100.00
33781;BME280;20097;50.832;19.100;2023-01-29T21:10:29;98523.19;;;-1.11;100.00
33781;BME280;20097;50.832;19.100;2023-01-29T21:15:34;98512.66;;;-1.06;100.00
33781;BME280;20097;50.832;19.100;2023-01-29T21:20:38;98523.09;;;-1.09;100.00
33781;BME280;20097;50.832;19.100;2023-01-29T21:25:44;98510.25;;;-0.95;100.00
33781;BME280;20097;50.832;19.100;2023-01-29T21:30:49;98501.44;;;-0.91;100.00
33781;BME280;20097;50.832;19.100;2023-01-29T21:35:57;98490.78;;;-0.98;100.00
33781;BME280;20097;50.832;19.100;2023-01-29T21:41:05;98486.00;;;-1.04;100.00
33781;BME280;20097;50.832;19.100;2023-01-29T21:46:11;98486.34;;;-0.96;100.00
33781;BME280;20097;50.832;19.100;2023-01-29T21:51:16;98480.75;;;-0.88;100.00
33781;BME280;20097;50.832;19.100;2023-01-29T21:56:22;98477.75;;;-0.95;100.00
33781;BME280;20097;50.832;19.100;2023-01-29T22:01:26;98470.50;;;-0.88;100.00
33781;BME280;20097;50.832;19.100;2023-01-29T22:06:40;98468.34;;;-0.94;100.00
33781;BME280;20097;50.832;19.100;2023-01-29T22:11:46;98459.00;;;-0.95;100.00
33781;BME280;20097;50.832;19.100;2023-01-29T22:16:51;98460.66;;;-0.94;100.00
33781;BME280;20097;50.832;19.100;2023-01-29T22:21:55;98450.41;;;-0.94;100.00
33781;BME280;20097;50.832;19.100;2023-01-29T22:27:00;98440.44;;;-0.99;100.00
33781;BME280;20097;50.832;19.100;2023-01-29T22:32:05;98427.63;;;-0.99;100.00
33781;BME280;20097;50.832;19.100;2023-01-29T22:37:10;98426.63;;;-0.96;100.00
33781;BME280;20097;50.832;19.100;2023-01-29T22:42:17;98422.31;;;-0.96;100.00
33781;BME280;20097;50.832;19.100;2023-01-29T22:47:21;98415.66;;;-0.98;100.00
33781;BME280;20097;50.832;19.100;2023-01-29T22:52:26;98401.00;;;-0.96;100.00
33781;BME280;20097;50.832;19.100;2023-01-29T22:57:41;98385.34;;;-0.92;100.00
33781;BME280;20097;50.832;19.100;2023-01-29T23:02:46;98384.03;;;-0.85;100.00
33781;BME280;20097;50.832;19.100;2023-01-29T23:07:50;98362.69;;;-0.98;100.00
33781;BME280;20097;50.832;19.100;2023-01-29T23:12:56;98340.13;;;-1.05;100.00
33781;BME280;20097;50.832;19.100;2023-01-29T23:18:01;98335.00;;;-1.05;100.00
33781;BME280;20097;50.832;19.100;2023-01-29T23:23:05;98311.94;;;-1.05;100.00
33781;BME280;20097;50.832;19.100;2023-01-29T23:28:11;98321.50;;;-1.07;100.00
33781;BME280;20097;50.832;19.100;2023-01-29T23:33:16;98314.72;;;-0.96;100.00
33781;BME280;20097;50.832;19.100;2023-01-29T23:38:20;98300.59;;;-1.01;100.00
33781;BME280;20097;50.832;19.100;2023-01-29T23:43:27;98276.50;;;-0.99;100.00
33781;BME280;20097;50.832;19.100;2023-01-29T23:48:32;98263.50;;;-0.96;100.00
33781;BME280;20097;50.832;19.100;2023-01-29T23:53:36;98268.63;;;-1.08;100.00
33781;BME280;20097;50.832;19.100;2023-01-29T23:58:42;98254.91;;;-1.07;100.00
